Star Pisces — 3FWP3 — position and weather

sailwx.info

Track history (hours):
 
Tides and Currents Weather Stations Pressure Air Temp Water Temp Dewpoint Dewpoint Depression Visibility Wind Speed Wind Dir Waves Ship Positions

Star Pisces

Last reported at 2020-Aug-31 23:29 UTC. Time now 2020-Sep-18 07:33 UTC.
Position S 06°14' E 104°47'.
Warning: this ship's position is 17 days out of date.

Length 176.6 m; beam 33.8 m; draft 6.5 m.

Type: Tanker. MMSI: 351931000.

Date/timePositionNaut miles runAvg speedWind from/ knotsBaromVisibWave heightAir tempDewpointWater temp
2020-Aug-31 23:29S 06°14' E 104°47'613.5
2020-Aug-31 23:00S 06°13' E 104°53'2311.5
2020-Aug-31 20:59S 06°02' E 105°14'23 9.3
2020-Aug-31 18:30S 05°42' E 105°24'10 5.1
2020-Aug-31 16:30S 05°33' E 105°19'2 3.3
2020-Aug-31 16:01S 05°33' E 105°20'1 1.1
2020-Aug-31 14:59S 05°32' E 105°21'0 0.0
2020-Aug-31 14:29S 05°32' E 105°21'0 0.0
2020-Aug-31 13:56S 05°32' E 105°21'0 0.0
2020-Aug-31 09:26S 05°32' E 105°21'0 0.0
2020-Aug-31 07:26S 05°32' E 105°21'0 0.0
2020-Aug-31 05:20S 05°32' E 105°21'0 0.0
2020-Aug-31 04:29S 05°32' E 105°21'0 0.0
2020-Aug-31 03:26S 05°32' E 105°21'0 0.0
2020-Aug-31 02:56S 05°32' E 105°21'0 0.0
2020-Aug-31 01:59S 05°32' E 105°21'0 0.0
2020-Aug-30 21:05S 05°32' E 105°21'0 0.0
2020-Aug-30 16:56S 05°32' E 105°21'0 0.0
2020-Aug-30 09:59S 05°32' E 105°21'0 0.0
2020-Aug-30 08:26S 05°32' E 105°21'0 0.0
2020-Aug-30 07:27S 05°32' E 105°21'0 0.0
2020-Aug-30 06:59S 05°32' E 105°21'0 0.0
2020-Aug-30 05:59S 05°32' E 105°21'0 0.0
2020-Aug-30 05:17S 05°32' E 105°21'0 0.0
2020-Aug-30 03:30S 05°32' E 105°21'0 0.0
2020-Aug-30 02:54S 05°32' E 105°21'0 0.0
2020-Aug-30 02:23S 05°32' E 105°21'0 0.0
2020-Aug-30 01:44S 05°32' E 105°21'0 0.0
2020-Aug-30 01:26S 05°32' E 105°21'0 0.0
2020-Aug-30 00:57S 05°32' E 105°21'0 0.0
2020-Aug-30 00:00S 05°32' E 105°21'0 0.0
2020-Aug-29 20:54S 05°32' E 105°21'0 0.0
2020-Aug-29 19:29S 05°32' E 105°21'0 0.0
2020-Aug-29 19:00S 05°32' E 105°21'1 2.1
2020-Aug-29 18:30S 05°33' E 105°20'1 1.9
2020-Aug-29 17:58S 05°33' E 105°19'0 0.1
2020-Aug-29 16:28S 05°33' E 105°19'0 0.1
2020-Aug-29 15:24S 05°33' E 105°19'37 5.4
2020-Aug-29 08:30S 06°06' E 105°37'1615.7
2020-Aug-29 07:30S 05°54' E 105°47'3815.0
2020-Aug-29 05:00S 05°23' E 106°08'714.1
2020-Aug-29 04:29S 05°17' E 106°12'1313.3
2020-Aug-29 03:30S 05°17' E 106°25'714.8
2020-Aug-29 03:00S 05°17' E 106°32'714.7
2020-Aug-29 02:30S 05°16' E 106°39'715.0
2020-Aug-29 02:00S 05°16' E 106°47'714.8
2020-Aug-29 01:30S 05°12' E 106°54'  
2020-Aug-26 21:00N 01°11' E 103°52'1212.0
2020-Aug-26 20:00N 01°04' E 103°42'  
2020-Aug-22 00:30N 01°10' E 103°42'5 9.1
2020-Aug-21 23:58N 01°10' E 103°47'  
Track history (hours):
 
Tides and Currents Weather Stations Pressure Air Temp Water Temp Dewpoint Dewpoint Depression Visibility Wind Speed Wind Dir Waves Ship Positions

Star Pisces

Last reported at 2020-Aug-31 23:29 UTC. Time now 2020-Sep-18 07:33 UTC.
Position S 06°14' E 104°47'.
Warning: this ship's position is 17 days out of date.

Length 176.6 m; beam 33.8 m; draft 6.5 m.

Type: Tanker. MMSI: 351931000.

Date/timePositionNaut miles runAvg speedWind from/ knotsBaromVisibWave heightAir tempDewpointWater temp
2020-Aug-31 23:29S 06°14' E 104°47'613.5
2020-Aug-31 23:00S 06°13' E 104°53'2311.5
2020-Aug-31 20:59S 06°02' E 105°14'23 9.3
2020-Aug-31 18:30S 05°42' E 105°24'10 5.1
2020-Aug-31 16:30S 05°33' E 105°19'2 3.3
2020-Aug-31 16:01S 05°33' E 105°20'1 1.1
2020-Aug-31 14:59S 05°32' E 105°21'0 0.0
2020-Aug-31 14:29S 05°32' E 105°21'0 0.0
2020-Aug-31 13:56S 05°32' E 105°21'0 0.0
2020-Aug-31 09:26S 05°32' E 105°21'0 0.0
2020-Aug-31 07:26S 05°32' E 105°21'0 0.0
2020-Aug-31 05:20S 05°32' E 105°21'0 0.0
2020-Aug-31 04:29S 05°32' E 105°21'0 0.0
2020-Aug-31 03:26S 05°32' E 105°21'0 0.0
2020-Aug-31 02:56S 05°32' E 105°21'0 0.0
2020-Aug-31 01:59S 05°32' E 105°21'0 0.0
2020-Aug-30 21:05S 05°32' E 105°21'0 0.0
2020-Aug-30 16:56S 05°32' E 105°21'0 0.0
2020-Aug-30 09:59S 05°32' E 105°21'0 0.0
2020-Aug-30 08:26S 05°32' E 105°21'0 0.0
2020-Aug-30 07:27S 05°32' E 105°21'0 0.0
2020-Aug-30 06:59S 05°32' E 105°21'0 0.0
2020-Aug-30 05:59S 05°32' E 105°21'0 0.0
2020-Aug-30 05:17S 05°32' E 105°21'0 0.0
2020-Aug-30 03:30S 05°32' E 105°21'0 0.0
2020-Aug-30 02:54S 05°32' E 105°21'0 0.0
2020-Aug-30 02:23S 05°32' E 105°21'0 0.0
2020-Aug-30 01:44S 05°32' E 105°21'0 0.0
2020-Aug-30 01:26S 05°32' E 105°21'0 0.0
2020-Aug-30 00:57S 05°32' E 105°21'0 0.0
2020-Aug-30 00:00S 05°32' E 105°21'0 0.0
2020-Aug-29 20:54S 05°32' E 105°21'0 0.0
2020-Aug-29 19:29S 05°32' E 105°21'0 0.0
2020-Aug-29 19:00S 05°32' E 105°21'1 2.1
2020-Aug-29 18:30S 05°33' E 105°20'1 1.9
2020-Aug-29 17:58S 05°33' E 105°19'0 0.1
2020-Aug-29 16:28S 05°33' E 105°19'0 0.1
2020-Aug-29 15:24S 05°33' E 105°19'37 5.4
2020-Aug-29 08:30S 06°06' E 105°37'1615.7
2020-Aug-29 07:30S 05°54' E 105°47'3815.0
2020-Aug-29 05:00S 05°23' E 106°08'714.1
2020-Aug-29 04:29S 05°17' E 106°12'1313.3
2020-Aug-29 03:30S 05°17' E 106°25'714.8
2020-Aug-29 03:00S 05°17' E 106°32'714.7
2020-Aug-29 02:30S 05°16' E 106°39'715.0
2020-Aug-29 02:00S 05°16' E 106°47'714.8
2020-Aug-29 01:30S 05°12' E 106°54'  
2020-Aug-26 21:00N 01°11' E 103°52'1212.0
2020-Aug-26 20:00N 01°04' E 103°42'  
2020-Aug-22 00:30N 01°10' E 103°42'5 9.1
2020-Aug-21 23:58N 01°10' E 103°47'  

Dump ship's entire track history